Galeon Andalucia — EAIZ — position and weather

sailwx.info

Track history (hours):
 
Tides and Currents Weather Stations Pressure Air Temp Water Temp Dewpoint Dewpoint Depression Visibility Wind Speed Wind Dir Waves Ship Positions

Galeon Andalucia

Last reported at 2017-Jun-22 15:56 UTC. Time now 2017-Jul-28 06:37 UTC.
Position N 42°19' W 070°49'.
Warning: this ship's position is 35 days out of date.

Length 47 m; draft 3.1 m.

Type: Ship. MMSI: 225356000.

Date/timePositionNaut miles runAvg speedWind from/ knotsBaromVisibWave heightAir tempDewpointWater temp
2017-Jun-22 15:56N 42°19' W 070°49'3 7.8
2017-Jun-22 15:30N 42°19' W 070°54'4 7.1
2017-Jun-22 15:00N 42°20' W 070°58'3 6.5
2017-Jun-22 14:30N 42°21' W 071°03'  
2017-Jun-17 19:13N 42°21' W 071°03'0 0.0
2017-Jun-17 19:00N 42°21' W 071°03'0 0.0
2017-Jun-17 18:30N 42°21' W 071°03'1 1.0
2017-Jun-17 18:00N 42°22' W 071°03'1 1.3
2017-Jun-17 17:30N 42°21' W 071°02'2 3.9
2017-Jun-17 17:00N 42°20' W 070°60'3 5.3
2017-Jun-17 16:30N 42°21' W 070°56'4 7.5
2017-Jun-17 16:00N 42°23' W 070°53'1 2.7
2017-Jun-17 15:30N 42°24' W 070°51'0 0.6
2017-Jun-17 15:00N 42°24' W 070°51'3 5.2
2017-Jun-17 14:30N 42°23' W 070°48'8 7.1
2017-Jun-17 13:26N 42°18' W 070°40'2 3.5
2017-Jun-17 13:00N 42°17' W 070°38'1 1.6
2017-Jun-17 12:30N 42°17' W 070°37'1 3.0
2017-Jun-17 12:00N 42°17' W 070°35'17 1.0
2017-Jun-16 19:40N 42°05' W 070°20'1 5.3
2017-Jun-16 19:28N 42°06' W 070°19'2 4.6
2017-Jun-16 19:00N 42°08' W 070°18'3 3.2
2017-Jun-16 18:12N 42°10' W 070°21'1 4.9
2017-Jun-16 17:59N 42°10' W 070°22'2 4.6
2017-Jun-16 17:30N 42°11' W 070°25'3 4.9
2017-Jun-16 16:59N 42°12' W 070°28'2 3.5
2017-Jun-16 16:30N 42°14' W 070°28'2 4.1
2017-Jun-16 16:00N 42°16' W 070°27'0 0.4
2017-Jun-16 15:27N 42°16' W 070°27'2 3.7
2017-Jun-16 15:00N 42°14' W 070°28'2 4.3
2017-Jun-16 14:30N 42°12' W 070°29'5 4.4
2017-Jun-16 13:23N 42°09' W 070°24'2 3.6
2017-Jun-16 12:45N 42°07' W 070°22'1 3.6
2017-Jun-16 12:30N 42°07' W 070°22'1 1.8
2017-Jun-16 11:58N 42°06' W 070°20'1 1.9
2017-Jun-16 11:19N 42°05' W 070°21'11 1.4
2017-Jun-16 04:02N 41°55' W 070°17'0 2.8
2017-Jun-16 03:56N 41°55' W 070°17'1 3.1
2017-Jun-16 03:30N 41°56' W 070°16'1 3.0
2017-Jun-16 03:00N 41°57' W 070°15'1 2.8
2017-Jun-16 02:29N 41°58' W 070°14'1 2.4
2017-Jun-16 02:00N 41°59' W 070°13'2 2.6
2017-Jun-16 01:19N 42°01' W 070°11'2 3.1
2017-Jun-16 00:49N 42°02' W 070°09'2 4.2
2017-Jun-16 00:25N 42°03' W 070°11'0 0.0
2017-Jun-15 23:59N 42°03' W 070°11'0 0.0
2017-Jun-14 20:48N 42°03' W 070°11'0 0.4
2017-Jun-14 20:29N 42°03' W 070°11'2 4.3
2017-Jun-14 20:00N 42°01' W 070°11'4 7.6
2017-Jun-14 19:30N 41°58' W 070°14'16 7.4
2017-Jun-14 17:23N 41°47' W 070°29'218 7.8
2017-Jun-13 13:28N 39°01' W 073°35'4 8.2
2017-Jun-13 13:00N 38°59' W 073°38'4 8.3
2017-Jun-13 12:30N 38°56' W 073°42'4 8.3
2017-Jun-13 12:00N 38°53' W 073°45'4 8.2
2017-Jun-13 11:29N 38°49' W 073°49'4 8.1
2017-Jun-13 11:00N 38°46' W 073°52'145 8.3
2017-Jun-12 17:37N 36°59' W 075°55'1 7.6
2017-Jun-12 17:30N 36°58' W 075°56'4 7.6
2017-Jun-12 17:01N 36°57' W 076°00'4 7.6
2017-Jun-12 16:30N 36°58' W 076°05'  
Track history (hours):
 
Tides and Currents Weather Stations Pressure Air Temp Water Temp Dewpoint Dewpoint Depression Visibility Wind Speed Wind Dir Waves Ship Positions

Galeon Andalucia

Last reported at 2017-Jun-22 15:56 UTC. Time now 2017-Jul-28 06:37 UTC.
Position N 42°19' W 070°49'.
Warning: this ship's position is 35 days out of date.

Length 47 m; draft 3.1 m.

Type: Ship. MMSI: 225356000.

Date/timePositionNaut miles runAvg speedWind from/ knotsBaromVisibWave heightAir tempDewpointWater temp
2017-Jun-22 15:56N 42°19' W 070°49'3 7.8
2017-Jun-22 15:30N 42°19' W 070°54'4 7.1
2017-Jun-22 15:00N 42°20' W 070°58'3 6.5
2017-Jun-22 14:30N 42°21' W 071°03'  
2017-Jun-17 19:13N 42°21' W 071°03'0 0.0
2017-Jun-17 19:00N 42°21' W 071°03'0 0.0
2017-Jun-17 18:30N 42°21' W 071°03'1 1.0
2017-Jun-17 18:00N 42°22' W 071°03'1 1.3
2017-Jun-17 17:30N 42°21' W 071°02'2 3.9
2017-Jun-17 17:00N 42°20' W 070°60'3 5.3
2017-Jun-17 16:30N 42°21' W 070°56'4 7.5
2017-Jun-17 16:00N 42°23' W 070°53'1 2.7
2017-Jun-17 15:30N 42°24' W 070°51'0 0.6
2017-Jun-17 15:00N 42°24' W 070°51'3 5.2
2017-Jun-17 14:30N 42°23' W 070°48'8 7.1
2017-Jun-17 13:26N 42°18' W 070°40'2 3.5
2017-Jun-17 13:00N 42°17' W 070°38'1 1.6
2017-Jun-17 12:30N 42°17' W 070°37'1 3.0
2017-Jun-17 12:00N 42°17' W 070°35'17 1.0
2017-Jun-16 19:40N 42°05' W 070°20'1 5.3
2017-Jun-16 19:28N 42°06' W 070°19'2 4.6
2017-Jun-16 19:00N 42°08' W 070°18'3 3.2
2017-Jun-16 18:12N 42°10' W 070°21'1 4.9
2017-Jun-16 17:59N 42°10' W 070°22'2 4.6
2017-Jun-16 17:30N 42°11' W 070°25'3 4.9
2017-Jun-16 16:59N 42°12' W 070°28'2 3.5
2017-Jun-16 16:30N 42°14' W 070°28'2 4.1
2017-Jun-16 16:00N 42°16' W 070°27'0 0.4
2017-Jun-16 15:27N 42°16' W 070°27'2 3.7
2017-Jun-16 15:00N 42°14' W 070°28'2 4.3
2017-Jun-16 14:30N 42°12' W 070°29'5 4.4
2017-Jun-16 13:23N 42°09' W 070°24'2 3.6
2017-Jun-16 12:45N 42°07' W 070°22'1 3.6
2017-Jun-16 12:30N 42°07' W 070°22'1 1.8
2017-Jun-16 11:58N 42°06' W 070°20'1 1.9
2017-Jun-16 11:19N 42°05' W 070°21'11 1.4
2017-Jun-16 04:02N 41°55' W 070°17'0 2.8
2017-Jun-16 03:56N 41°55' W 070°17'1 3.1
2017-Jun-16 03:30N 41°56' W 070°16'1 3.0
2017-Jun-16 03:00N 41°57' W 070°15'1 2.8
2017-Jun-16 02:29N 41°58' W 070°14'1 2.4
2017-Jun-16 02:00N 41°59' W 070°13'2 2.6
2017-Jun-16 01:19N 42°01' W 070°11'2 3.1
2017-Jun-16 00:49N 42°02' W 070°09'2 4.2
2017-Jun-16 00:25N 42°03' W 070°11'0 0.0
2017-Jun-15 23:59N 42°03' W 070°11'0 0.0
2017-Jun-14 20:48N 42°03' W 070°11'0 0.4
2017-Jun-14 20:29N 42°03' W 070°11'2 4.3
2017-Jun-14 20:00N 42°01' W 070°11'4 7.6
2017-Jun-14 19:30N 41°58' W 070°14'16 7.4
2017-Jun-14 17:23N 41°47' W 070°29'218 7.8
2017-Jun-13 13:28N 39°01' W 073°35'4 8.2
2017-Jun-13 13:00N 38°59' W 073°38'4 8.3
2017-Jun-13 12:30N 38°56' W 073°42'4 8.3
2017-Jun-13 12:00N 38°53' W 073°45'4 8.2
2017-Jun-13 11:29N 38°49' W 073°49'4 8.1
2017-Jun-13 11:00N 38°46' W 073°52'145 8.3
2017-Jun-12 17:37N 36°59' W 075°55'1 7.6
2017-Jun-12 17:30N 36°58' W 075°56'4 7.6
2017-Jun-12 17:01N 36°57' W 076°00'4 7.6
2017-Jun-12 16:30N 36°58' W 076°05'  

Dump ship's entire track history